sensor_id;sensor_type;location;lat;lon;timestamp;temperature;humidity
7046;DHT22;3564;53.326;10.356;2023-08-01T00:00:05;20.10;99.90
7046;DHT22;3564;53.326;10.356;2023-08-01T00:02:36;20.00;99.90
7046;DHT22;3564;53.326;10.356;2023-08-01T00:05:02;20.00;99.90
7046;DHT22;3564;53.326;10.356;2023-08-01T00:07:28;20.10;99.90
7046;DHT22;3564;53.326;10.356;2023-08-01T00:09:53;20.10;99.90
7046;DHT22;3564;53.326;10.356;2023-08-01T00:12:19;20.00;99.90
7046;DHT22;3564;53.326;10.356;2023-08-01T00:14:45;20.00;99.90
7046;DHT22;3564;53.326;10.356;2023-08-01T00:17:10;20.00;99.90
7046;DHT22;3564;53.326;10.356;2023-08-01T00:19:37;19.90;99.90
7046;DHT22;3564;53.326;10.356;2023-08-01T00:22:03;19.90;99.90
7046;DHT22;3564;53.326;10.356;2023-08-01T00:24:28;19.90;99.90
7046;DHT22;3564;53.326;10.356;2023-08-01T00:26:54;19.90;99.90
7046;DHT22;3564;53.326;10.356;2023-08-01T00:29:21;19.90;99.90
7046;DHT22;3564;53.326;10.356;2023-08-01T00:31:47;20.00;99.90
7046;DHT22;3564;53.326;10.356;2023-08-01T00:34:15;20.00;99.90
7046;DHT22;3564;53.326;10.356;2023-08-01T00:36:43;20.00;99.90
7046;DHT22;3564;53.326;10.356;2023-08-01T00:39:09;20.00;99.90
7046;DHT22;3564;53.326;10.356;2023-08-01T00:41:35;20.00;99.90
7046;DHT22;3564;53.326;10.356;2023-08-01T00:44:03;20.00;99.90
7046;DHT22;3564;53.326;10.356;2023-08-01T00:46:29;20.10;99.90
7046;DHT22;3564;53.326;10.356;2023-08-01T00:48:55;20.00;99.90
7046;DHT22;3564;53.326;10.356;2023-08-01T00:51:23;20.10;99.90
7046;DHT22;3564;53.326;10.356;2023-08-01T00:53:49;20.10;99.90
7046;DHT22;3564;53.326;10.356;2023-08-01T00:56:15;20.10;99.90
7046;DHT22;3564;53.326;10.356;2023-08-01T00:58:40;20.10;99.90
7046;DHT22;3564;53.326;10.356;2023-08-01T01:01:06;20.10;99.90
7046;DHT22;3564;53.326;10.356;2023-08-01T01:03:32;20.00;99.90
7046;DHT22;3564;53.326;10.356;2023-08-01T01:09:01;20.00;99.90
7046;DHT22;3564;53.326;10.356;2023-08-01T01:11:26;20.10;99.90
7046;DHT22;3564;53.326;10.356;2023-08-01T01:13:52;20.00;99.90
7046;DHT22;3564;53.326;10.356;2023-08-01T01:16:19;20.00;99.90
7046;DHT22;3564;53.326;10.356;2023-08-01T01:18:45;20.10;99.90
7046;DHT22;3564;53.326;10.356;2023-08-01T01:21:25;20.10;99.90
7046;DHT22;3564;53.326;10.356;2023-08-01T01:23:52;20.10;99.90
7046;DHT22;3564;53.326;10.356;2023-08-01T01:26:18;20.10;99.90
7046;DHT22;3564;53.326;10.356;2023-08-01T01:28:48;20.10;99.90
7046;DHT22;3564;53.326;10.356;2023-08-01T01:31:14;20.10;99.90
7046;DHT22;3564;53.326;10.356;2023-08-01T01:33:40;20.10;99.90
7046;DHT22;3564;53.326;10.356;2023-08-01T01:36:06;20.10;99.90
7046;DHT22;3564;53.326;10.356;2023-08-01T01:38:31;20.10;99.90
7046;DHT22;3564;53.326;10.356;2023-08-01T01:41:00;20.10;99.90
7046;DHT22;3564;53.326;10.356;2023-08-01T01:43:25;20.10;99.90
7046;DHT22;3564;53.326;10.356;2023-08-01T01:45:51;20.10;99.90
7046;DHT22;3564;53.326;10.356;2023-08-01T01:48:16;20.10;99.90
7046;DHT22;3564;53.326;10.356;2023-08-01T01:50:48;20.10;99.90
7046;DHT22;3564;53.326;10.356;2023-08-01T01:53:14;20.10;99.90
7046;DHT22;3564;53.326;10.356;2023-08-01T01:55:43;20.10;99.90
7046;DHT22;3564;53.326;10.356;2023-08-01T01:58:08;20.10;99.90
7046;DHT22;3564;53.326;10.356;2023-08-01T02:00:34;20.10;99.90
7046;DHT22;3564;53.326;10.356;2023-08-01T02:02:59;20.20;99.90
7046;DHT22;3564;53.326;10.356;2023-08-01T02:05:26;20.10;99.90
7046;DHT22;3564;53.326;10.356;2023-08-01T02:07:52;20.20;99.90
7046;DHT22;3564;53.326;10.356;2023-08-01T02:10:17;20.10;99.90
7046;DHT22;3564;53.326;10.356;2023-08-01T02:12:45;20.20;99.90
7046;DHT22;3564;53.326;10.356;2023-08-01T02:15:11;20.20;99.90
7046;DHT22;3564;53.326;10.356;2023-08-01T02:17:36;20.20;99.90
7046;DHT22;3564;53.326;10.356;2023-08-01T02:20:02;20.10;99.90
7046;DHT22;3564;53.326;10.356;2023-08-01T02:22:32;20.10;99.90
7046;DHT22;3564;53.326;10.356;2023-08-01T02:24:58;20.10;99.90
7046;DHT22;3564;53.326;10.356;2023-08-01T02:27:26;20.10;99.90
7046;DHT22;3564;53.326;10.356;2023-08-01T02:29:52;20.10;99.90
7046;DHT22;3564;53.326;10.356;2023-08-01T02:32:20;20.10;99.90
7046;DHT22;3564;53.326;10.356;2023-08-01T02:34:49;20.10;99.90
7046;DHT22;3564;53.326;10.356;2023-08-01T02:37:15;20.10;99.90
7046;DHT22;3564;53.326;10.356;2023-08-01T02:39:40;20.10;99.90
7046;DHT22;3564;53.326;10.356;2023-08-01T02:42:06;20.10;99.90
7046;DHT22;3564;53.326;10.356;2023-08-01T02:44:34;20.10;99.90
7046;DHT22;3564;53.326;10.356;2023-08-01T02:47:03;20.10;99.90
7046;DHT22;3564;53.326;10.356;2023-08-01T02:49:29;20.10;99.90
7046;DHT22;3564;53.326;10.356;2023-08-01T02:51:54;20.10;99.90
7046;DHT22;3564;53.326;10.356;2023-08-01T02:54:23;20.10;99.90
7046;DHT22;3564;53.326;10.356;2023-08-01T02:56:48;20.10;99.90
7046;DHT22;3564;53.326;10.356;2023-08-01T02:59:14;20.10;99.90
7046;DHT22;3564;53.326;10.356;2023-08-01T03:01:39;20.10;99.90
7046;DHT22;3564;53.326;10.356;2023-08-01T03:04:06;20.10;99.90
7046;DHT22;3564;53.326;10.356;2023-08-01T03:06:38;20.10;99.90
7046;DHT22;3564;53.326;10.356;2023-08-01T03:09:03;20.10;99.90
7046;DHT22;3564;53.326;10.356;2023-08-01T03:11:35;20.10;99.90
7046;DHT22;3564;53.326;10.356;2023-08-01T03:14:01;20.10;99.90
7046;DHT22;3564;53.326;10.356;2023-08-01T03:16:30;20.10;99.90
7046;DHT22;3564;53.326;10.356;2023-08-01T03:18:56;20.10;99.90
7046;DHT22;3564;53.326;10.356;2023-08-01T03:21:25;20.10;99.90
7046;DHT22;3564;53.326;10.356;2023-08-01T03:23:51;20.10;99.90
7046;DHT22;3564;53.326;10.356;2023-08-01T03:26:17;20.10;99.90
7046;DHT22;3564;53.326;10.356;2023-08-01T03:28:43;20.10;99.90
7046;DHT22;3564;53.326;10.356;2023-08-01T03:31:09;20.10;99.90
7046;DHT22;3564;53.326;10.356;2023-08-01T03:33:34;20.10;99.90
7046;DHT22;3564;53.326;10.356;2023-08-01T03:36:03;20.10;99.90
7046;DHT22;3564;53.326;10.356;2023-08-01T03:38:32;20.10;99.90
7046;DHT22;3564;53.326;10.356;2023-08-01T03:41:01;20.10;99.90
7046;DHT22;3564;53.326;10.356;2023-08-01T03:43:26;20.10;99.90
7046;DHT22;3564;53.326;10.356;2023-08-01T03:45:52;20.10;99.90
7046;DHT22;3564;53.326;10.356;2023-08-01T03:48:17;20.10;99.90
7046;DHT22;3564;53.326;10.356;2023-08-01T03:50:43;20.10;99.90
7046;DHT22;3564;53.326;10.356;2023-08-01T03:53:08;20.00;99.90
7046;DHT22;3564;53.326;10.356;2023-08-01T03:55:34;20.00;99.90
7046;DHT22;3564;53.326;10.356;2023-08-01T03:57:59;20.00;99.90
7046;DHT22;3564;53.326;10.356;2023-08-01T04:00:31;20.00;99.90
7046;DHT22;3564;53.326;10.356;2023-08-01T04:03:00;20.00;99.90
7046;DHT22;3564;53.326;10.356;2023-08-01T04:05:25;20.00;99.90
7046;DHT22;3564;53.326;10.356;2023-08-01T04:07:51;20.00;99.90
7046;DHT22;3564;53.326;10.356;2023-08-01T04:10:20;19.90;99.90
7046;DHT22;3564;53.326;10.356;2023-08-01T04:12:49;19.90;99.90
7046;DHT22;3564;53.326;10.356;2023-08-01T04:15:15;19.90;99.90
7046;DHT22;3564;53.326;10.356;2023-08-01T04:17:43;19.90;99.90
7046;DHT22;3564;53.326;10.356;2023-08-01T04:20:09;19.90;99.90
7046;DHT22;3564;53.326;10.356;2023-08-01T04:22:35;19.80;99.90
7046;DHT22;3564;53.326;10.356;2023-08-01T04:25:01;19.80;99.90
7046;DHT22;3564;53.326;10.356;2023-08-01T04:27:27;19.90;99.90
7046;DHT22;3564;53.326;10.356;2023-08-01T04:29:53;19.80;99.90
7046;DHT22;3564;53.326;10.356;2023-08-01T04:32:22;19.80;99.90
7046;DHT22;3564;53.326;10.356;2023-08-01T04:34:48;19.80;99.90
7046;DHT22;3564;53.326;10.356;2023-08-01T04:37:13;19.80;99.90
7046;DHT22;3564;53.326;10.356;2023-08-01T04:39:39;19.80;99.90
7046;DHT22;3564;53.326;10.356;2023-08-01T04:42:05;19.70;99.90
7046;DHT22;3564;53.326;10.356;2023-08-01T04:44:34;19.70;99.90
7046;DHT22;3564;53.326;10.356;2023-08-01T04:46:59;19.70;99.90
7046;DHT22;3564;53.326;10.356;2023-08-01T04:49:25;19.70;99.90
7046;DHT22;3564;53.326;10.356;2023-08-01T04:51:51;19.70;99.90
7046;DHT22;3564;53.326;10.356;2023-08-01T04:54:16;19.70;99.90
7046;DHT22;3564;53.326;10.356;2023-08-01T04:56:42;19.70;99.90
7046;DHT22;3564;53.326;10.356;2023-08-01T04:59:08;19.70;99.90
7046;DHT22;3564;53.326;10.356;2023-08-01T05:01:33;19.70;99.90
7046;DHT22;3564;53.326;10.356;2023-08-01T05:03:59;19.70;99.90
7046;DHT22;3564;53.326;10.356;2023-08-01T05:06:25;19.80;99.90
7046;DHT22;3564;53.326;10.356;2023-08-01T05:08:50;19.80;99.90
7046;DHT22;3564;53.326;10.356;2023-08-01T05:11:19;19.80;99.90
7046;DHT22;3564;53.326;10.356;2023-08-01T05:13:45;19.80;99.90
7046;DHT22;3564;53.326;10.356;2023-08-01T05:16:10;19.80;99.90
7046;DHT22;3564;53.326;10.356;2023-08-01T05:18:36;19.90;99.90
7046;DHT22;3564;53.326;10.356;2023-08-01T05:21:01;19.80;99.90
7046;DHT22;3564;53.326;10.356;2023-08-01T05:23:27;19.90;99.90
7046;DHT22;3564;53.326;10.356;2023-08-01T05:25:53;19.90;99.90
7046;DHT22;3564;53.326;10.356;2023-08-01T05:28:18;20.00;99.90
7046;DHT22;3564;53.326;10.356;2023-08-01T05:30:45;20.00;99.90
7046;DHT22;3564;53.326;10.356;2023-08-01T05:33:10;20.00;99.90
7046;DHT22;3564;53.326;10.356;2023-08-01T05:35:36;20.00;99.90
7046;DHT22;3564;53.326;10.356;2023-08-01T05:38:04;20.00;99.90
7046;DHT22;3564;53.326;10.356;2023-08-01T05:40:30;20.10;99.90
7046;DHT22;3564;53.326;10.356;2023-08-01T05:42:55;20.10;99.90
7046;DHT22;3564;53.326;10.356;2023-08-01T05:45:21;20.10;99.90
7046;DHT22;3564;53.326;10.356;2023-08-01T05:47:46;20.10;99.90
7046;DHT22;3564;53.326;10.356;2023-08-01T05:50:12;20.10;99.90
7046;DHT22;3564;53.326;10.356;2023-08-01T05:52:37;20.10;99.90
7046;DHT22;3564;53.326;10.356;2023-08-01T05:55:06;20.10;99.90
7046;DHT22;3564;53.326;10.356;2023-08-01T05:57:32;20.10;99.90
7046;DHT22;3564;53.326;10.356;2023-08-01T05:59:58;20.10;99.90
7046;DHT22;3564;53.326;10.356;2023-08-01T06:02:23;20.10;99.90
7046;DHT22;3564;53.326;10.356;2023-08-01T06:04:49;20.10;99.90
7046;DHT22;3564;53.326;10.356;2023-08-01T06:07:15;20.10;99.90
7046;DHT22;3564;53.326;10.356;2023-08-01T06:09:40;20.10;99.90
7046;DHT22;3564;53.326;10.356;2023-08-01T06:12:06;20.10;99.90
7046;DHT22;3564;53.326;10.356;2023-08-01T06:14:32;20.10;99.90
7046;DHT22;3564;53.326;10.356;2023-08-01T06:16:57;20.10;99.90
7046;DHT22;3564;53.326;10.356;2023-08-01T06:19:23;20.10;99.90
7046;DHT22;3564;53.326;10.356;2023-08-01T06:21:48;20.10;99.90
7046;DHT22;3564;53.326;10.356;2023-08-01T06:24:14;20.10;99.90
7046;DHT22;3564;53.326;10.356;2023-08-01T06:26:39;20.10;99.90
7046;DHT22;3564;53.326;10.356;2023-08-01T06:29:05;20.20;99.90
7046;DHT22;3564;53.326;10.356;2023-08-01T06:31:31;20.10;99.90
7046;DHT22;3564;53.326;10.356;2023-08-01T06:33:56;20.10;99.90
7046;DHT22;3564;53.326;10.356;2023-08-01T06:36:22;20.10;99.90
7046;DHT22;3564;53.326;10.356;2023-08-01T06:38:47;20.10;99.90
7046;DHT22;3564;53.326;10.356;2023-08-01T06:41:13;20.10;99.90
7046;DHT22;3564;53.326;10.356;2023-08-01T06:43:38;20.10;99.90
7046;DHT22;3564;53.326;10.356;2023-08-01T06:46:07;20.10;99.90
7046;DHT22;3564;53.326;10.356;2023-08-01T06:48:33;20.10;99.90
7046;DHT22;3564;53.326;10.356;2023-08-01T06:51:01;20.10;99.90
7046;DHT22;3564;53.326;10.356;2023-08-01T06:53:30;20.10;99.90
7046;DHT22;3564;53.326;10.356;2023-08-01T06:55:59;20.10;99.90
7046;DHT22;3564;53.326;10.356;2023-08-01T06:58:24;20.20;99.90
7046;DHT22;3564;53.326;10.356;2023-08-01T07:00:53;20.10;99.90
7046;DHT22;3564;53.326;10.356;2023-08-01T07:03:18;20.20;99.90
7046;DHT22;3564;53.326;10.356;2023-08-01T07:05:47;20.30;99.90
7046;DHT22;3564;53.326;10.356;2023-08-01T07:08:18;20.30;99.90
7046;DHT22;3564;53.326;10.356;2023-08-01T07:10:46;20.30;99.90
7046;DHT22;3564;53.326;10.356;2023-08-01T07:13:12;20.30;99.90
7046;DHT22;3564;53.326;10.356;2023-08-01T07:15:41;20.30;99.90
7046;DHT22;3564;53.326;10.356;2023-08-01T07:18:06;20.30;99.90
7046;DHT22;3564;53.326;10.356;2023-08-01T07:20:32;20.30;99.90
7046;DHT22;3564;53.326;10.356;2023-08-01T07:23:00;20.30;99.90
7046;DHT22;3564;53.326;10.356;2023-08-01T07:25:26;20.30;99.90
7046;DHT22;3564;53.326;10.356;2023-08-01T07:27:51;20.20;99.90
7046;DHT22;3564;53.326;10.356;2023-08-01T07:30:17;20.20;99.90
7046;DHT22;3564;53.326;10.356;2023-08-01T07:32:43;20.30;99.90
7046;DHT22;3564;53.326;10.356;2023-08-01T07:35:09;20.30;99.90
7046;DHT22;3564;53.326;10.356;2023-08-01T07:37:35;20.20;99.90
7046;DHT22;3564;53.326;10.356;2023-08-01T07:40:04;20.20;99.90
7046;DHT22;3564;53.326;10.356;2023-08-01T07:42:33;20.20;99.90
7046;DHT22;3564;53.326;10.356;2023-08-01T07:45:01;20.20;99.90
7046;DHT22;3564;53.326;10.356;2023-08-01T07:47:27;20.20;99.90
7046;DHT22;3564;53.326;10.356;2023-08-01T07:49:53;20.30;99.90
7046;DHT22;3564;53.326;10.356;2023-08-01T07:52:18;20.30;99.90
7046;DHT22;3564;53.326;10.356;2023-08-01T07:54:44;20.30;99.90
7046;DHT22;3564;53.326;10.356;2023-08-01T07:57:10;20.40;99.90
7046;DHT22;3564;53.326;10.356;2023-08-01T07:59:36;20.40;99.90
7046;DHT22;3564;53.326;10.356;2023-08-01T08:02:02;20.50;99.90
7046;DHT22;3564;53.326;10.356;2023-08-01T08:04:27;20.50;99.90
7046;DHT22;3564;53.326;10.356;2023-08-01T08:06:54;20.50;99.90
7046;DHT22;3564;53.326;10.356;2023-08-01T08:09:20;20.50;99.90
7046;DHT22;3564;53.326;10.356;2023-08-01T08:11:51;20.50;99.90
7046;DHT22;3564;53.326;10.356;2023-08-01T08:14:20;20.50;99.90
7046;DHT22;3564;53.326;10.356;2023-08-01T08:16:48;20.60;99.90
7046;DHT22;3564;53.326;10.356;2023-08-01T08:19:14;20.50;99.90
7046;DHT22;3564;53.326;10.356;2023-08-01T08:21:40;20.60;99.90
7046;DHT22;3564;53.326;10.356;2023-08-01T08:24:05;20.60;99.90
7046;DHT22;3564;53.326;10.356;2023-08-01T08:26:31;20.70;99.90
7046;DHT22;3564;53.326;10.356;2023-08-01T08:28:59;20.70;99.90
7046;DHT22;3564;53.326;10.356;2023-08-01T08:31:25;20.80;99.90
7046;DHT22;3564;53.326;10.356;2023-08-01T08:33:50;20.90;99.90
7046;DHT22;3564;53.326;10.356;2023-08-01T08:36:19;20.90;99.90
7046;DHT22;3564;53.326;10.356;2023-08-01T08:38:44;20.90;99.90
7046;DHT22;3564;53.326;10.356;2023-08-01T08:41:26;20.90;99.90
7046;DHT22;3564;53.326;10.356;2023-08-01T08:43:56;21.00;99.90
7046;DHT22;3564;53.326;10.356;2023-08-01T08:46:26;21.00;99.90
7046;DHT22;3564;53.326;10.356;2023-08-01T08:48:53;21.10;99.90
7046;DHT22;3564;53.326;10.356;2023-08-01T08:51:20;21.20;99.90
7046;DHT22;3564;53.326;10.356;2023-08-01T08:53:47;21.20;99.90
7046;DHT22;3564;53.326;10.356;2023-08-01T08:56:13;21.30;99.90
7046;DHT22;3564;53.326;10.356;2023-08-01T08:58:40;21.40;99.90
7046;DHT22;3564;53.326;10.356;2023-08-01T09:01:06;21.40;99.90
7046;DHT22;3564;53.326;10.356;2023-08-01T09:03:39;21.50;99.90
7046;DHT22;3564;53.326;10.356;2023-08-01T09:06:09;21.50;99.90
7046;DHT22;3564;53.326;10.356;2023-08-01T09:08:36;21.60;99.90
7046;DHT22;3564;53.326;10.356;2023-08-01T09:11:04;21.70;99.90
7046;DHT22;3564;53.326;10.356;2023-08-01T09:13:30;21.80;99.90
7046;DHT22;3564;53.326;10.356;2023-08-01T09:15:56;21.80;99.90
7046;DHT22;3564;53.326;10.356;2023-08-01T09:18:22;22.20;99.90
7046;DHT22;3564;53.326;10.356;2023-08-01T09:20:49;22.30;99.90
7046;DHT22;3564;53.326;10.356;2023-08-01T09:23:16;22.40;99.90
7046;DHT22;3564;53.326;10.356;2023-08-01T09:25:42;22.50;99.90
7046;DHT22;3564;53.326;10.356;2023-08-01T09:28:18;22.50;99.90
7046;DHT22;3564;53.326;10.356;2023-08-01T09:30:53;22.60;99.90
7046;DHT22;3564;53.326;10.356;2023-08-01T09:33:23;22.60;99.90
7046;DHT22;3564;53.326;10.356;2023-08-01T09:35:52;22.50;99.90
7046;DHT22;3564;53.326;10.356;2023-08-01T09:38:18;22.50;99.90
7046;DHT22;3564;53.326;10.356;2023-08-01T09:40:45;22.40;99.90
7046;DHT22;3564;53.326;10.356;2023-08-01T09:43:12;22.30;99.90
7046;DHT22;3564;53.326;10.356;2023-08-01T09:45:37;22.20;99.90
7046;DHT22;3564;53.326;10.356;2023-08-01T09:48:24;22.10;99.90
7046;DHT22;3564;53.326;10.356;2023-08-01T09:50:51;22.10;99.90
7046;DHT22;3564;53.326;10.356;2023-08-01T09:53:16;22.10;99.90
7046;DHT22;3564;53.326;10.356;2023-08-01T09:55:44;22.00;99.90
7046;DHT22;3564;53.326;10.356;2023-08-01T09:58:13;22.00;99.90
7046;DHT22;3564;53.326;10.356;2023-08-01T10:00:42;22.00;99.90
7046;DHT22;3564;53.326;10.356;2023-08-01T10:03:09;22.00;99.90
7046;DHT22;3564;53.326;10.356;2023-08-01T10:05:35;22.10;99.90
7046;DHT22;3564;53.326;10.356;2023-08-01T10:08:03;22.10;99.90
7046;DHT22;3564;53.326;10.356;2023-08-01T10:10:29;22.20;99.90
7046;DHT22;3564;53.326;10.356;2023-08-01T10:12:57;22.10;99.90
7046;DHT22;3564;53.326;10.356;2023-08-01T10:15:24;22.10;99.90
7046;DHT22;3564;53.326;10.356;2023-08-01T10:17:51;22.10;99.90
7046;DHT22;3564;53.326;10.356;2023-08-01T10:20:16;22.10;99.90
7046;DHT22;3564;53.326;10.356;2023-08-01T10:22:43;22.10;99.90
7046;DHT22;3564;53.326;10.356;2023-08-01T10:25:10;22.10;99.90
7046;DHT22;3564;53.326;10.356;2023-08-01T10:27:36;22.10;99.90
7046;DHT22;3564;53.326;10.356;2023-08-01T10:30:04;22.20;99.90
7046;DHT22;3564;53.326;10.356;2023-08-01T10:32:35;22.30;99.90
7046;DHT22;3564;53.326;10.356;2023-08-01T10:35:02;22.40;99.90
7046;DHT22;3564;53.326;10.356;2023-08-01T10:37:42;22.40;99.90
7046;DHT22;3564;53.326;10.356;2023-08-01T10:40:08;22.60;99.90
7046;DHT22;3564;53.326;10.356;2023-08-01T10:42:41;22.60;99.90
7046;DHT22;3564;53.326;10.356;2023-08-01T10:45:16;22.80;99.90
7046;DHT22;3564;53.326;10.356;2023-08-01T10:47:44;22.90;99.90
7046;DHT22;3564;53.326;10.356;2023-08-01T10:50:16;23.00;99.90
7046;DHT22;3564;53.326;10.356;2023-08-01T10:52:42;23.10;99.90
7046;DHT22;3564;53.326;10.356;2023-08-01T10:55:08;23.10;99.90
7046;DHT22;3564;53.326;10.356;2023-08-01T10:57:36;23.30;99.90
7046;DHT22;3564;53.326;10.356;2023-08-01T11:00:03;23.40;99.90
7046;DHT22;3564;53.326;10.356;2023-08-01T11:02:34;23.60;99.90
7046;DHT22;3564;53.326;10.356;2023-08-01T11:05:07;23.60;99.90
7046;DHT22;3564;53.326;10.356;2023-08-01T11:07:34;23.70;99.90
7046;DHT22;3564;53.326;10.356;2023-08-01T11:10:04;23.80;99.90
7046;DHT22;3564;53.326;10.356;2023-08-01T11:12:34;23.80;99.90
7046;DHT22;3564;53.326;10.356;2023-08-01T11:15:01;23.80;99.90
7046;DHT22;3564;53.326;10.356;2023-08-01T11:17:27;23.80;99.80
7046;DHT22;3564;53.326;10.356;2023-08-01T11:20:00;23.70;99.90
7046;DHT22;3564;53.326;10.356;2023-08-01T11:22:26;23.70;99.90
7046;DHT22;3564;53.326;10.356;2023-08-01T11:24:51;23.60;99.90
7046;DHT22;3564;53.326;10.356;2023-08-01T11:27:18;23.60;99.90
7046;DHT22;3564;53.326;10.356;2023-08-01T11:29:43;23.70;99.90
7046;DHT22;3564;53.326;10.356;2023-08-01T11:32:09;23.80;99.90
7046;DHT22;3564;53.326;10.356;2023-08-01T11:34:42;23.90;99.60
7046;DHT22;3564;53.326;10.356;2023-08-01T11:37:18;24.00;99.60
7046;DHT22;3564;53.326;10.356;2023-08-01T11:39:44;24.00;99.20
7046;DHT22;3564;53.326;10.356;2023-08-01T11:42:17;24.10;99.40
7046;DHT22;3564;53.326;10.356;2023-08-01T11:44:43;24.20;99.70
7046;DHT22;3564;53.326;10.356;2023-08-01T11:47:16;24.20;99.80
7046;DHT22;3564;53.326;10.356;2023-08-01T11:49:49;24.10;99.40
7046;DHT22;3564;53.326;10.356;2023-08-01T11:52:28;24.00;99.30
7046;DHT22;3564;53.326;10.356;2023-08-01T11:54:56;23.70;99.00
7046;DHT22;3564;53.326;10.356;2023-08-01T11:57:22;23.40;99.90
7046;DHT22;3564;53.326;10.356;2023-08-01T11:59:54;23.00;99.90
7046;DHT22;3564;53.326;10.356;2023-08-01T12:02:27;22.50;99.90
7046;DHT22;3564;53.326;10.356;2023-08-01T12:04:53;22.10;99.90
7046;DHT22;3564;53.326;10.356;2023-08-01T12:07:20;21.80;99.90
7046;DHT22;3564;53.326;10.356;2023-08-01T12:10:01;21.60;99.90
7046;DHT22;3564;53.326;10.356;2023-08-01T12:12:27;21.50;99.90
7046;DHT22;3564;53.326;10.356;2023-08-01T12:14:59;21.40;99.90
7046;DHT22;3564;53.326;10.356;2023-08-01T12:17:25;21.30;99.90
7046;DHT22;3564;53.326;10.356;2023-08-01T12:19:51;21.20;99.90
7046;DHT22;3564;53.326;10.356;2023-08-01T12:22:19;21.20;99.90
7046;DHT22;3564;53.326;10.356;2023-08-01T12:24:44;21.30;99.90
7046;DHT22;3564;53.326;10.356;2023-08-01T12:27:10;21.40;99.90
7046;DHT22;3564;53.326;10.356;2023-08-01T12:29:36;21.50;99.90
7046;DHT22;3564;53.326;10.356;2023-08-01T12:32:03;21.70;99.90
7046;DHT22;3564;53.326;10.356;2023-08-01T12:34:29;21.80;99.90
7046;DHT22;3564;53.326;10.356;2023-08-01T12:36:57;21.90;99.90
7046;DHT22;3564;53.326;10.356;2023-08-01T12:39:23;22.00;99.90
7046;DHT22;3564;53.326;10.356;2023-08-01T12:41:51;22.10;99.90
7046;DHT22;3564;53.326;10.356;2023-08-01T12:44:18;22.10;99.90
7046;DHT22;3564;53.326;10.356;2023-08-01T12:46:44;22.20;99.90
7046;DHT22;3564;53.326;10.356;2023-08-01T12:49:09;22.10;99.90
7046;DHT22;3564;53.326;10.356;2023-08-01T12:51:35;22.10;99.90
7046;DHT22;3564;53.326;10.356;2023-08-01T12:54:03;22.00;99.90
7046;DHT22;3564;53.326;10.356;2023-08-01T12:56:32;22.00;99.90
7046;DHT22;3564;53.326;10.356;2023-08-01T12:58:58;21.90;99.90
7046;DHT22;3564;53.326;10.356;2023-08-01T13:01:23;22.00;99.90
7046;DHT22;3564;53.326;10.356;2023-08-01T13:03:52;22.00;99.90
7046;DHT22;3564;53.326;10.356;2023-08-01T13:06:17;22.00;99.90
7046;DHT22;3564;53.326;10.356;2023-08-01T13:08:43;22.00;99.90
7046;DHT22;3564;53.326;10.356;2023-08-01T13:11:13;22.20;99.90
7046;DHT22;3564;53.326;10.356;2023-08-01T13:13:41;22.30;99.90
7046;DHT22;3564;53.326;10.356;2023-08-01T13:16:07;22.40;99.90
7046;DHT22;3564;53.326;10.356;2023-08-01T13:18:36;22.60;99.90
7046;DHT22;3564;53.326;10.356;2023-08-01T13:21:08;22.70;99.90
7046;DHT22;3564;53.326;10.356;2023-08-01T13:23:34;22.90;99.90
7046;DHT22;3564;53.326;10.356;2023-08-01T13:25:59;22.90;99.90
7046;DHT22;3564;53.326;10.356;2023-08-01T13:28:30;23.10;99.90
7046;DHT22;3564;53.326;10.356;2023-08-01T13:30:56;23.10;99.90
7046;DHT22;3564;53.326;10.356;2023-08-01T13:33:21;23.20;99.90
7046;DHT22;3564;53.326;10.356;2023-08-01T13:35:51;23.20;99.90
7046;DHT22;3564;53.326;10.356;2023-08-01T13:38:16;23.30;99.90
7046;DHT22;3564;53.326;10.356;2023-08-01T13:40:43;23.30;99.90
7046;DHT22;3564;53.326;10.356;2023-08-01T13:43:08;23.20;99.90
7046;DHT22;3564;53.326;10.356;2023-08-01T13:45:34;23.10;99.90
7046;DHT22;3564;53.326;10.356;2023-08-01T13:47:59;23.00;99.90
7046;DHT22;3564;53.326;10.356;2023-08-01T13:50:25;22.70;99.90
7046;DHT22;3564;53.326;10.356;2023-08-01T13:52:53;22.60;99.90
7046;DHT22;3564;53.326;10.356;2023-08-01T13:55:19;22.50;99.90
7046;DHT22;3564;53.326;10.356;2023-08-01T13:57:44;22.50;99.90
7046;DHT22;3564;53.326;10.356;2023-08-01T14:00:11;22.50;99.90
7046;DHT22;3564;53.326;10.356;2023-08-01T14:02:36;22.30;99.90
7046;DHT22;3564;53.326;10.356;2023-08-01T14:05:05;22.20;99.90
7046;DHT22;3564;53.326;10.356;2023-08-01T14:07:30;22.10;99.90
7046;DHT22;3564;53.326;10.356;2023-08-01T14:09:56;22.00;99.90
7046;DHT22;3564;53.326;10.356;2023-08-01T14:12:22;21.80;99.90
7046;DHT22;3564;53.326;10.356;2023-08-01T14:14:49;21.60;99.90
7046;DHT22;3564;53.326;10.356;2023-08-01T14:17:16;21.50;99.90
7046;DHT22;3564;53.326;10.356;2023-08-01T14:19:41;21.30;99.90
7046;DHT22;3564;53.326;10.356;2023-08-01T14:22:07;21.20;99.90
7046;DHT22;3564;53.326;10.356;2023-08-01T14:24:32;21.00;99.90
7046;DHT22;3564;53.326;10.356;2023-08-01T14:26:58;21.00;99.90
7046;DHT22;3564;53.326;10.356;2023-08-01T14:29:24;21.00;99.90
7046;DHT22;3564;53.326;10.356;2023-08-01T14:31:51;21.00;99.90
7046;DHT22;3564;53.326;10.356;2023-08-01T14:34:17;20.80;99.90
7046;DHT22;3564;53.326;10.356;2023-08-01T14:36:42;20.60;99.90
7046;DHT22;3564;53.326;10.356;2023-08-01T14:39:08;20.50;99.90
7046;DHT22;3564;53.326;10.356;2023-08-01T14:41:33;20.60;99.90
7046;DHT22;3564;53.326;10.356;2023-08-01T14:43:59;20.60;99.90
7046;DHT22;3564;53.326;10.356;2023-08-01T14:46:24;20.50;99.90
7046;DHT22;3564;53.326;10.356;2023-08-01T14:48:53;20.40;99.90
7046;DHT22;3564;53.326;10.356;2023-08-01T14:51:18;20.30;99.90
7046;DHT22;3564;53.326;10.356;2023-08-01T14:53:47;20.40;99.90
7046;DHT22;3564;53.326;10.356;2023-08-01T14:56:12;20.40;99.90
7046;DHT22;3564;53.326;10.356;2023-08-01T14:58:38;20.40;99.90
7046;DHT22;3564;53.326;10.356;2023-08-01T15:01:16;20.20;99.90
7046;DHT22;3564;53.326;10.356;2023-08-01T15:03:42;20.20;99.90
7046;DHT22;3564;53.326;10.356;2023-08-01T15:06:08;20.20;99.90
7046;DHT22;3564;53.326;10.356;2023-08-01T15:08:34;20.30;99.90
7046;DHT22;3564;53.326;10.356;2023-08-01T15:11:04;20.30;99.90
7046;DHT22;3564;53.326;10.356;2023-08-01T15:13:30;20.30;99.90
7046;DHT22;3564;53.326;10.356;2023-08-01T15:15:56;20.30;99.90
7046;DHT22;3564;53.326;10.356;2023-08-01T15:18:21;20.30;99.90
7046;DHT22;3564;53.326;10.356;2023-08-01T15:20:47;20.30;99.90
7046;DHT22;3564;53.326;10.356;2023-08-01T15:23:12;20.60;99.90
7046;DHT22;3564;53.326;10.356;2023-08-01T15:25:41;20.80;99.90
7046;DHT22;3564;53.326;10.356;2023-08-01T15:28:06;21.30;99.90
7046;DHT22;3564;53.326;10.356;2023-08-01T15:30:35;21.90;99.90
7046;DHT22;3564;53.326;10.356;2023-08-01T15:33:00;22.30;99.90
7046;DHT22;3564;53.326;10.356;2023-08-01T15:35:32;22.40;99.90
7046;DHT22;3564;53.326;10.356;2023-08-01T15:37:58;22.40;99.90
7046;DHT22;3564;53.326;10.356;2023-08-01T15:40:23;22.50;99.90
7046;DHT22;3564;53.326;10.356;2023-08-01T15:42:49;22.20;99.90
7046;DHT22;3564;53.326;10.356;2023-08-01T15:45:14;22.30;99.90